»·PEaware :: WAT118 KAMA-0E0

WAT118 :: KAMA-0E0

FLIGHT INFORMATION

Flight Status: Arrived
Operator:
Walker Air Transport
More flights by this operator :: More flights under this callsign
Pilot: Oshane D. (17945)
Aircraft: SOCATA TBM-900
(TBM9)
More flights by this aircraft type
Origin: KAMA Amarillo Intl
United States
Destination: 0E0 Moriarty
United States
More flights between these airports :: More routes between these airports
Route: +PNH J58 FTI
File this flight plan on PilotEdge
Remarks: RMK / SIMBRIEF
Altitude:
(Current/Filed)
30,000ft
Speed:
(Current/Filed)
319kts
Departed: 20-May-20 03:42 PM
Arrived: 20-May-20 04:36 PM
Distance/Time
Traveled:
211nm/0:54
Distance/Time
To Go:
Arrived

Flight Plot

Page will automatically refresh every two minutes.

Flight plan parsing failed; only flown route is shown


Map Options




Map Legend


Flown Route
Filed Route
Departure Airport
Arrival Airport
Navaid (VOR, NDB)
Fix

Horizontal Profiles

Position Reports

Time Latitude Longitude Heading Altitude Ground
Speed
20-May-20 15:41 35.249392 -101.804089 272 13836ft 210kts
20-May-20 15:42 35.259172 -101.875155 273 15078ft 216kts
20-May-20 15:42 35.267490 -101.936178 273 16365ft 219kts
20-May-20 15:43 35.277629 -102.010933 273 17793ft 224kts
20-May-20 15:45 35.289627 -102.099997 273 19358ft 229kts
20-May-20 15:45 35.298351 -102.165068 273 20348ft 233kts
20-May-20 15:46 35.308930 -102.244459 273 21624ft 239kts
20-May-20 15:48 35.321492 -102.339064 272 23349ft 240kts
20-May-20 15:48 35.330346 -102.406199 272 24658ft 238kts
20-May-20 15:49 35.340836 -102.486083 272 26263ft 236kts
20-May-20 15:50 35.351193 -102.565327 272 27906ft 234kts
20-May-20 15:51 35.361355 -102.643581 272 29468ft 232kts
20-May-20 15:52 35.372069 -102.726864 272 29932ft 269kts
20-May-20 15:53 35.384397 -102.822594 273 29916ft 296kts
20-May-20 15:54 35.397364 -102.924202 273 29911ft 306kts
20-May-20 15:55 35.410506 -103.027816 273 29892ft 310kts
20-May-20 15:56 35.423695 -103.132684 273 29860ft 312kts
20-May-20 15:57 35.436865 -103.238070 273 29837ft 311kts
20-May-20 15:58 35.449865 -103.342916 273 29839ft 311kts
20-May-20 15:59 35.462752 -103.447586 272 29841ft 310kts
20-May-20 16:00 35.475571 -103.552384 272 29844ft 310kts
20-May-20 16:01 35.488207 -103.656630 272 29846ft 309kts
20-May-20 16:02 35.500814 -103.761346 272 29850ft 310kts
20-May-20 16:03 35.513340 -103.866152 272 29852ft 309kts
20-May-20 16:04 35.525707 -103.970431 272 29874ft 309kts
20-May-20 16:05 35.538026 -104.075051 271 29933ft 307kts
20-May-20 16:06 35.550139 -104.178780 271 29990ft 307kts
20-May-20 16:07 35.562219 -104.282801 270 29990ft 306kts
20-May-20 16:08 35.574045 -104.385794 270 29989ft 303kts
20-May-20 16:09 35.585734 -104.488206 270 29989ft 302kts
20-May-20 16:10 35.597292 -104.590249 270 29988ft 301kts
20-May-20 16:11 35.608973 -104.694456 270 28445ft 309kts
20-May-20 16:12 35.620629 -104.798875 271 26464ft 307kts
20-May-20 16:13 35.631969 -104.901210 271 24821ft 292kts
20-May-20 16:14 35.629951 -104.993588 224 23356ft 264kts
20-May-20 16:15 35.579021 -105.056996 225 22111ft 260kts
20-May-20 16:16 35.528077 -105.120469 225 20933ft 258kts
20-May-20 16:17 35.476643 -105.184275 225 19767ft 257kts
20-May-20 16:18 35.425806 -105.247230 225 18614ft 251kts
20-May-20 16:19 35.375640 -105.309241 226 17582ft 243kts
20-May-20 16:20 35.327292 -105.368894 225 17258ft 244kts
20-May-20 16:21 35.277317 -105.430424 225 16739ft 249kts
20-May-20 16:22 35.226841 -105.492463 225 16224ft 251kts
20-May-20 16:23 35.176247 -105.554533 225 15480ft 250kts
20-May-20 16:24 35.127369 -105.614373 225 14105ft 227kts
20-May-20 16:25 35.085016 -105.666136 225 13106ft 188kts
20-May-20 16:26 35.046373 -105.708144 221 11498ft 181kts
20-May-20 16:27 35.009092 -105.748324 221 9806ft 175kts
20-May-20 16:28 34.982369 -105.788845 260 8909ft 130kts
20-May-20 16:29 34.981872 -105.830296 264 8649ft 118kts
20-May-20 16:30 34.981990 -105.871905 265 8146ft 125kts
20-May-20 16:31 34.982089 -105.909722 266 7545ft 93kts
20-May-20 16:32 34.982197 -105.939330 266 7033ft 83kts
20-May-20 16:33 34.982230 -105.967757 265 6624ft 83kts
20-May-20 16:34 34.982281 -105.991735 265 6232ft 82kts
20-May-20 16:35 34.982915 -106.003182 20 6207ft 0kts
20-May-20 16:36 34.983242 -106.002499 186 6207ft 0kts
20-May-20 16:37 34.983242 -106.002499 186 6207ft 0kts
20-May-20 16:38 34.983242 -106.002499 186 6207ft 0kts
20-May-20 16:39 34.983242 -106.002499 186 6207ft 0kts
20-May-20 16:40 34.983242 -106.002499 186 6207ft 0kts
20-May-20 16:41 34.983242 -106.002499 186 6207ft 0kts
20-May-20 16:42 34.983241 -106.002499 186 6207ft 0kts
20-May-20 16:43 34.983241 -106.002499 186 6207ft 0kts
20-May-20 16:44 34.983241 -106.002499 186 6207ft 0kts

Navigation Log

Ident Type
Flight plan parsing failed, navigation log unavailable